Station info - map view · info · telemetry · weather · raw · status · beacons · messages · bulletins · browse · moving · my account
Callsign, ship name or locator: Clear       
It is possible to search using wildcards (*?) after a prefix. Example: OH*
APRS station DL2TP-7 - show graphs
Map loading...
Comment: 73 de Tom
Mic-E message: En route
Location: 48°39.59' N 10°08.33' E - locator JN58BP68PI - show map - static map
5.4 miles Northwest bearing 299° from Giengen an der Brenz, Regierungsbezirk Stuttgart, Baden-Württemberg, Germany [?]
7.1 miles Northwest bearing 309° from Hermaringen, Regierungsbezirk Stuttgart, Baden-Württemberg, Germany
44.6 miles East bearing 101° from Stuttgart, Regierungsbezirk Stuttgart, Baden-Württemberg, Germany
75.1 miles Northwest bearing 299° from München (Muenchen), Regierungsbezirk Oberbayern, Bavaria, Germany
Last position: 2018-01-07 14:59:15 EST (15d 21h41m ago)
2018-01-07 20:59:15 CET local time at Giengen an der Brenz, Germany [?]
Altitude: 1913 ft
Course: 155°
Device: Kenwood: TH-D74 (ht)
Last path: DL2TP-7>TX3Y59 via WIDE1-1,WIDE2-1,qAR,DB0HDH (good)
Positions stored: 1326
Other SSIDs: DL2TP DL2TP-5
Stations near current position of DL2TP-7 - show more
callsign distance last heard - EST      callsign distance last heard - EST
DO6STS-120.9 miles 7°2018-01-23 03:00:07 DL5NBZ1.0 miles 22°2018-01-20 13:34:59
DB7SQ1.5 miles 348°2018-01-23 11:20:17 DK2HM1.8 miles 356°2017-12-26 15:27:28
DL5UR1.9 miles 20°2018-01-21 06:13:35 DB0HDH2.2 miles 5°2018-01-23 12:31:25
DL6PP-102.9 miles 154°2018-01-09 03:03:41 DL5UR B3.0 miles 11°2018-01-19 08:57:40
DL5UR-B3.0 miles 11°2018-01-19 08:57:50 DL5UR DP3.0 miles 11°2018-01-13 00:00:04
DL5UR-DP3.0 miles 11°2018-01-22 13:32:29 DO7PEB DP5.0 miles 142°2018-01-21 12:19:44
DL4SAV5.3 miles 330°2018-01-23 12:36:35 DL2ZZM-135.3 miles 330°2018-01-23 12:35:16
YO6PES-95.5 miles 162°2018-01-23 12:39:05 N16204315.9 miles 264°2018-01-11 19:32:23
N1620309_6.8 miles 43°2018-01-13 19:31:38 N16203097.2 miles 53°2018-01-13 19:36:32
M15533747.9 miles 40°2018-01-22 01:36:39 DJ6MG-78.9 miles 347°2018-01-07 14:22:42
Stations which heard DL2TP-7 directly on radio –
callsign pkts first heard - EST last heard longest (tx => rx) longest at - EST
DB0KX-2 2 2018-01-07 07:21:03 2018-01-07 10:16:06 JO30CT > JO31EG 31.7 miles 8° 2018-01-07 10:16:06
DB0MYK 11 2018-01-07 11:00:32 2018-01-07 11:44:00 JO30SG > JO30OJ 16.9 miles 305° 2018-01-07 11:44:00
DB0BL 6 2018-01-07 14:07:02 2018-01-07 14:22:08 JN59CF > JN58EV 24.8 miles 158° 2018-01-07 14:07:02
DL3SL-6 10 2018-01-07 13:36:54 2018-01-07 13:44:32 JN49SF > JN49RE 5.0 miles 249° 2018-01-07 13:44:32
DB0RO 9 2018-01-07 12:44:07 2018-01-07 13:10:44 JN49JG > JN49AF 34.3 miles 267° 2018-01-07 13:10:44
DB0RHB 11 2018-01-07 10:31:08 2018-01-07 10:53:40 JO30HV > JO30LN 24.9 miles 150° 2018-01-07 10:31:08
DB0TTM 2 2018-01-07 13:49:29 2018-01-07 13:58:25 JN49XE > JN49VJ 16.4 miles 344° 2018-01-07 13:58:25
DB0KOE 1 2018-01-07 10:34:56 2018-01-07 10:34:56 JO30IU > JO30LW 11.4 miles 61° 2018-01-07 10:34:56
DK0HQ 6 2018-01-07 11:07:22 2018-01-07 11:12:47 JO30PM > JO30NR 13.5 miles 339° 2018-01-07 11:11:45
DL8KZ 1 2018-01-07 10:46:27 2018-01-07 10:46:27 JO30KQ > JO30PQ 15.6 miles 89° 2018-01-07 10:46:27
DB0FTC 16 2018-01-07 12:33:48 2018-01-07 13:05:39 JN49IG > JN49BO 33.4 miles 311° 2018-01-07 13:05:39
DB0SAA-10 9 2018-01-07 14:01:35 2018-01-07 14:36:36 JN59AE > JN58BT 26.7 miles 174° 2018-01-07 14:01:35
DJ8HS-1 2 2018-01-07 12:08:54 2018-01-07 12:09:28 JN39WW > JO40CB 17.0 miles 61° 2018-01-07 12:08:54
DH9SB 16 2018-01-07 13:20:10 2018-01-07 13:36:16 JN49QD > JN49NE 10.0 miles 282° 2018-01-07 13:36:16
DB0FDA 3 2018-01-07 12:24:47 2018-01-07 12:32:45 JN49BR > JN49HU 24.0 miles 68° 2018-01-07 12:24:47
DL6SH-10 2 2018-01-07 13:52:18 2018-01-07 13:52:52 JN49VE > JN48SW 18.4 miles 210° 2018-01-07 13:52:52
DB0EBZ 1 2018-01-07 14:29:35 2018-01-07 14:29:35 JN58CU > JN59GB 20.9 miles 48° 2018-01-07 14:29:35
DB0WIM 1 2018-01-07 12:48:22 2018-01-07 12:48:22 JN49EI > JN49CD 16.6 miles 208° 2018-01-07 12:48:22
DB0ESG-10 6 2018-01-07 12:10:06 2018-01-07 12:16:44 JN39XU > JN39XX 9.8 miles 352° 2018-01-07 12:16:44
DB0NIS-10 25 2018-01-07 10:13:05 2018-01-07 10:56:23 JO30NN > JO30EP 33.2 miles 281° 2018-01-07 10:56:23
DB0UT-10 1 2018-01-07 11:45:39 2018-01-07 11:45:39 JO30SF > JN39NR 37.5 miles 209° 2018-01-07 11:45:39
DB0ODE-10 3 2018-01-07 12:55:08 2018-01-07 13:13:27 JN49FI > JN49MH 27.3 miles 91° 2018-01-07 12:55:08
DB0FEU-1 6 2018-01-07 14:06:03 2018-01-07 14:16:32 JN59BF > JN59DD 8.4 miles 115° 2018-01-07 14:06:03
DB0MR 4 2018-01-07 11:22:19 2018-01-07 11:36:49 JO30QL > JO30SI 13.1 miles 133° 2018-01-07 11:22:19
DB0HDH 16 2018-01-07 14:41:20 2018-01-07 14:59:15 JN58BP > JN58BQ 2.2 miles 5° 2018-01-07 14:59:15
DK0WT 1 2018-01-07 13:19:04 2018-01-07 13:19:04 JN49LF > JN49KB 11.9 miles 210° 2018-01-07 13:19:04
DB1DT 5 2018-01-07 13:57:19 2018-01-07 14:04:46 JN59BE > JN49XC 10.2 miles 220° 2018-01-07 14:04:46
DB1SB-10 1 2018-01-07 13:03:20 2018-01-07 13:03:20 JN49IG > JN49IF 2.0 miles 172° 2018-01-07 13:03:20
DB0KG 1 2018-01-07 13:01:07 2018-01-07 13:01:07 JN49HG > JN49JC 14.6 miles 148° 2018-01-07 13:01:07
DC1SHM-10 2 2018-01-07 13:31:52 2018-01-07 13:34:28 JN49PE > JN49PD 1.8 miles 136° 2018-01-07 13:31:52

Only position packets which were originated by the station are shown here. The range statistics show some extra long hops, because some digipeaters do not correctly add themselves to the digipeater path. Please check the raw packets.
About this site
This page shows real-time information collected from the Automatic Position Reporting System Internet network (APRS-IS). APRS is used by amateur (ham) radio operators to transmit real-time position information, weather data, telemetry and messages over the radio. A vehicle equipped with a GPS receiver, a VHF transmitter or HF transceiver and a small computer device called a tracker transmits it's location, speed and course in a small data packet, which is then received by a nearby iGate receiving site which forwards the packet on the Internet. Systems connected to the Internet can send information on the APRS-IS without a radio transmitter, or collect and display information transmitted anywhere in the world.
FAQ · Blog · Discussion group · Linking to aprs.fi · AIS sites · Service status · Database statistics · Advertising on aprs.fi · Technical details · API · Change log · Planned changes · Credits and thanks · Terms Of Service · iPhone/iPad APRS